TRA64R LEMG-GMMX
Flight info
| Callsign | TRA64R |
|---|---|
| Flight time | 1h 9m |
| Altitude | 35000 |
| Route | PIMOS N869 GALTO UN869 SLK UZ801 ABDOR/N0365F190 H400 KUDAX |
| Aircraft | A321/M-SDE3FGHIRWY/LB1 |
Departure
| Time | 2026-04-30 12:59 |
|---|---|
| Airport | Málaga-Costa del Sol Airport (LEMG) |
Arrival
| Time | 2026-04-30 14:08 |
|---|---|
| Airport | Marrakesh Menara Airport (GMMX) |
| Time | Latitude | Longitude | Altitude | Speed | Heading |
|---|---|---|---|---|---|
| 2026-04-30 12:23 | 36.67917 | -4.49534 | 42 ft | 0 kts | 182° |
| 2026-04-30 12:51 | 36.67935 | -4.49533 | 40 ft | 4 kts | 185° |
| 2026-04-30 12:51 | 36.67961 | -4.49528 | 41 ft | 4 kts | 203° |
| 2026-04-30 12:51 | 36.67976 | -4.49515 | 39 ft | 4 kts | 282° |
| 2026-04-30 12:52 | 36.67966 | -4.49488 | 41 ft | 4 kts | 313° |
| 2026-04-30 12:52 | 36.67960 | -4.49480 | 40 ft | 0 kts | 311° |
| 2026-04-30 12:54 | 36.67978 | -4.49505 | 41 ft | 8 kts | 311° |
| 2026-04-30 12:54 | 36.68015 | -4.49560 | 42 ft | 8 kts | 300° |
| 2026-04-30 12:54 | 36.67996 | -4.49624 | 41 ft | 9 kts | 228° |
| 2026-04-30 12:54 | 36.67950 | -4.49684 | 42 ft | 10 kts | 223° |
| 2026-04-30 12:55 | 36.67892 | -4.49748 | 42 ft | 12 kts | 221° |
| 2026-04-30 12:55 | 36.67828 | -4.49821 | 42 ft | 13 kts | 223° |
| 2026-04-30 12:55 | 36.67741 | -4.49875 | 41 ft | 14 kts | 214° |
| 2026-04-30 12:55 | 36.67755 | -4.49982 | 44 ft | 14 kts | 307° |
| 2026-04-30 12:56 | 36.67817 | -4.50072 | 44 ft | 14 kts | 311° |
| 2026-04-30 12:56 | 36.67884 | -4.50165 | 44 ft | 15 kts | 311° |
| 2026-04-30 12:56 | 36.67952 | -4.50261 | 44 ft | 15 kts | 312° |
| 2026-04-30 12:56 | 36.68026 | -4.50364 | 44 ft | 17 kts | 311° |
| 2026-04-30 12:57 | 36.68104 | -4.50474 | 43 ft | 18 kts | 310° |
| 2026-04-30 12:57 | 36.68186 | -4.50590 | 44 ft | 18 kts | 312° |
| 2026-04-30 12:57 | 36.68272 | -4.50708 | 45 ft | 19 kts | 312° |
| 2026-04-30 12:57 | 36.68354 | -4.50825 | 49 ft | 17 kts | 312° |
| 2026-04-30 12:58 | 36.68435 | -4.50936 | 51 ft | 17 kts | 312° |
| 2026-04-30 12:58 | 36.68499 | -4.51050 | 54 ft | 15 kts | 282° |
| 2026-04-30 12:58 | 36.68445 | -4.51127 | 58 ft | 12 kts | 195° |
| 2026-04-30 12:58 | 36.68365 | -4.51128 | 61 ft | 15 kts | 150° |
| 2026-04-30 12:59 | 36.68226 | -4.50941 | 53 ft | 60 kts | 131° |
| 2026-04-30 12:59 | 36.67747 | -4.50270 | 53 ft | 143 kts | 131° |
| 2026-04-30 12:59 | 36.66959 | -4.49166 | 315 ft | 180 kts | 131° |
| 2026-04-30 12:59 | 36.66138 | -4.48032 | 1406 ft | 176 kts | 134° |
| 2026-04-30 13:00 | 36.65329 | -4.46902 | 2017 ft | 178 kts | 133° |
| 2026-04-30 13:00 | 36.64460 | -4.45690 | 2223 ft | 198 kts | 133° |
| 2026-04-30 13:00 | 36.63501 | -4.44354 | 2383 ft | 220 kts | 133° |
| 2026-04-30 13:00 | 36.62215 | -4.43292 | 2937 ft | 226 kts | 167° |
| 2026-04-30 13:01 | 36.60643 | -4.43384 | 3680 ft | 230 kts | 194° |
| 2026-04-30 13:01 | 36.59098 | -4.43919 | 4435 ft | 230 kts | 195° |
| 2026-04-30 13:01 | 36.57558 | -4.44490 | 5189 ft | 232 kts | 196° |
| 2026-04-30 13:01 | 36.56002 | -4.45072 | 5943 ft | 233 kts | 197° |
| 2026-04-30 13:02 | 36.54445 | -4.45658 | 6670 ft | 235 kts | 198° |
| 2026-04-30 13:02 | 36.53011 | -4.46586 | 7282 ft | 242 kts | 217° |
| 2026-04-30 13:02 | 36.51690 | -4.48035 | 7561 ft | 264 kts | 221° |
| 2026-04-30 13:02 | 36.50307 | -4.49611 | 8134 ft | 272 kts | 221° |
| 2026-04-30 13:03 | 36.48898 | -4.51221 | 8861 ft | 276 kts | 221° |
| 2026-04-30 13:03 | 36.47495 | -4.52824 | 9594 ft | 278 kts | 221° |
| 2026-04-30 13:03 | 36.46062 | -4.54459 | 10275 ft | 283 kts | 221° |
| 2026-04-30 13:03 | 36.44550 | -4.56177 | 10464 ft | 305 kts | 221° |
| 2026-04-30 13:04 | 36.42918 | -4.58019 | 10682 ft | 324 kts | 221° |
| 2026-04-30 13:04 | 36.41232 | -4.59919 | 11228 ft | 331 kts | 221° |
| 2026-04-30 13:04 | 36.39517 | -4.61853 | 11908 ft | 333 kts | 221° |
| 2026-04-30 13:04 | 36.37813 | -4.63774 | 12599 ft | 336 kts | 220° |
| 2026-04-30 13:05 | 36.36076 | -4.65729 | 13307 ft | 338 kts | 220° |
| 2026-04-30 13:05 | 36.34325 | -4.67699 | 13979 ft | 340 kts | 220° |
| 2026-04-30 13:05 | 36.32561 | -4.69685 | 14584 ft | 343 kts | 220° |
| 2026-04-30 13:06 | 36.29007 | -4.73678 | 15727 ft | 350 kts | 221° |
| 2026-04-30 13:06 | 36.27192 | -4.75715 | 16304 ft | 354 kts | 221° |
| 2026-04-30 13:06 | 36.25356 | -4.77778 | 16865 ft | 358 kts | 221° |
| 2026-04-30 13:06 | 36.23500 | -4.79866 | 17416 ft | 362 kts | 221° |
| 2026-04-30 13:07 | 36.21624 | -4.81972 | 17967 ft | 366 kts | 221° |
| 2026-04-30 13:07 | 36.19726 | -4.84096 | 18483 ft | 369 kts | 221° |
| 2026-04-30 13:07 | 36.17801 | -4.86246 | 18962 ft | 372 kts | 221° |
| 2026-04-30 13:07 | 36.15899 | -4.88367 | 19455 ft | 374 kts | 221° |
| 2026-04-30 13:08 | 36.13814 | -4.90317 | 19938 ft | 376 kts | 213° |
| 2026-04-30 13:08 | 36.11604 | -4.92068 | 20434 ft | 378 kts | 213° |
| 2026-04-30 13:08 | 36.09383 | -4.93822 | 20922 ft | 379 kts | 213° |
| 2026-04-30 13:08 | 36.07146 | -4.95585 | 21425 ft | 381 kts | 213° |
| 2026-04-30 13:09 | 36.04921 | -4.97344 | 21905 ft | 383 kts | 213° |
| 2026-04-30 13:09 | 36.02670 | -4.99128 | 22400 ft | 385 kts | 213° |
| 2026-04-30 13:09 | 36.00411 | -5.00918 | 22879 ft | 387 kts | 213° |
| 2026-04-30 13:09 | 35.98133 | -5.02717 | 23339 ft | 389 kts | 213° |
| 2026-04-30 13:10 | 35.95841 | -5.04528 | 23760 ft | 391 kts | 213° |
| 2026-04-30 13:10 | 35.93538 | -5.06347 | 24136 ft | 393 kts | 213° |
| 2026-04-30 13:10 | 35.91257 | -5.08144 | 24538 ft | 394 kts | 213° |
| 2026-04-30 13:10 | 35.88942 | -5.09959 | 24943 ft | 395 kts | 213° |
| 2026-04-30 13:11 | 35.86619 | -5.11780 | 25349 ft | 396 kts | 213° |
| 2026-04-30 13:11 | 35.84281 | -5.13614 | 25723 ft | 397 kts | 213° |
| 2026-04-30 13:11 | 35.81964 | -5.15488 | 26105 ft | 398 kts | 216° |
| 2026-04-30 13:11 | 35.79743 | -5.17447 | 26483 ft | 399 kts | 218° |
| 2026-04-30 13:12 | 35.77526 | -5.19513 | 26854 ft | 399 kts | 218° |
| 2026-04-30 13:12 | 35.75321 | -5.21615 | 27230 ft | 400 kts | 219° |
| 2026-04-30 13:12 | 35.73111 | -5.23724 | 27597 ft | 401 kts | 219° |
| 2026-04-30 13:13 | 35.68647 | -5.27909 | 28324 ft | 404 kts | 218° |
| 2026-04-30 13:13 | 35.66396 | -5.29988 | 28668 ft | 405 kts | 218° |
| 2026-04-30 13:13 | 35.61889 | -5.34121 | 29346 ft | 407 kts | 218° |
| 2026-04-30 13:14 | 35.59605 | -5.36205 | 29653 ft | 409 kts | 218° |
| 2026-04-30 13:14 | 35.57308 | -5.38302 | 29938 ft | 410 kts | 218° |
| 2026-04-30 13:14 | 35.52727 | -5.42490 | 30490 ft | 413 kts | 218° |
| 2026-04-30 13:15 | 35.50416 | -5.44607 | 30777 ft | 414 kts | 217° |
| 2026-04-30 13:15 | 35.45819 | -5.48807 | 31492 ft | 411 kts | 217° |
| 2026-04-30 13:15 | 35.43530 | -5.50893 | 31922 ft | 409 kts | 217° |
| 2026-04-30 13:16 | 35.41251 | -5.52976 | 32361 ft | 406 kts | 217° |
| 2026-04-30 13:16 | 35.38993 | -5.55039 | 32769 ft | 403 kts | 216° |
| 2026-04-30 13:16 | 35.36740 | -5.57092 | 33195 ft | 401 kts | 216° |
| 2026-04-30 13:17 | 35.32263 | -5.61157 | 34031 ft | 399 kts | 215° |
| 2026-04-30 13:17 | 35.30066 | -5.63150 | 34345 ft | 397 kts | 215° |
| 2026-04-30 13:17 | 35.26364 | -5.66512 | 34784 ft | 398 kts | 215° |
| 2026-04-30 13:18 | 35.23388 | -5.69216 | 35023 ft | 399 kts | 215° |
| 2026-04-30 13:18 | 35.16772 | -5.75217 | 35062 ft | 391 kts | 216° |
| 2026-04-30 13:19 | 35.12436 | -5.79142 | 35069 ft | 390 kts | 216° |
| 2026-04-30 13:19 | 35.08057 | -5.83107 | 35069 ft | 392 kts | 215° |
| 2026-04-30 13:20 | 35.03658 | -5.87079 | 35063 ft | 393 kts | 215° |
| 2026-04-30 13:20 | 34.99252 | -5.91042 | 35063 ft | 393 kts | 215° |
| 2026-04-30 13:21 | 34.94875 | -5.94977 | 35062 ft | 393 kts | 215° |
| 2026-04-30 13:22 | 34.88255 | -6.00913 | 35056 ft | 393 kts | 215° |
| 2026-04-30 13:22 | 34.81663 | -6.06798 | 35046 ft | 393 kts | 215° |
| 2026-04-30 13:23 | 34.75037 | -6.12728 | 35060 ft | 394 kts | 215° |
| 2026-04-30 13:24 | 34.66211 | -6.20603 | 35059 ft | 394 kts | 215° |
| 2026-04-30 13:25 | 34.58083 | -6.27832 | 35062 ft | 395 kts | 215° |
| 2026-04-30 13:26 | 34.46994 | -6.37666 | 35053 ft | 397 kts | 215° |
| 2026-04-30 13:28 | 34.35830 | -6.47530 | 35081 ft | 398 kts | 215° |
| 2026-04-30 13:28 | 34.29097 | -6.53462 | 35065 ft | 398 kts | 215° |
| 2026-04-30 13:29 | 34.20148 | -6.61338 | 35049 ft | 399 kts | 215° |
| 2026-04-30 13:31 | 34.08916 | -6.71188 | 35046 ft | 400 kts | 215° |
| 2026-04-30 13:32 | 33.97527 | -6.80827 | 35041 ft | 400 kts | 213° |
| 2026-04-30 13:33 | 33.88304 | -6.88330 | 35047 ft | 402 kts | 214° |
| 2026-04-30 13:34 | 33.81330 | -6.94062 | 35051 ft | 405 kts | 214° |
| 2026-04-30 13:35 | 33.72008 | -7.01677 | 35058 ft | 406 kts | 214° |
| 2026-04-30 13:36 | 33.62642 | -7.09321 | 35068 ft | 407 kts | 214° |
| 2026-04-30 13:36 | 33.55636 | -7.15016 | 35070 ft | 407 kts | 214° |
| 2026-04-30 13:37 | 33.48583 | -7.20735 | 35073 ft | 407 kts | 214° |
| 2026-04-30 13:38 | 33.41569 | -7.26425 | 35047 ft | 409 kts | 215° |
| 2026-04-30 13:39 | 33.32083 | -7.34088 | 35041 ft | 412 kts | 215° |
| 2026-04-30 13:40 | 33.24968 | -7.39827 | 35043 ft | 413 kts | 215° |
| 2026-04-30 13:40 | 33.20187 | -7.43674 | 35043 ft | 414 kts | 215° |
| 2026-04-30 13:41 | 33.15398 | -7.47510 | 35055 ft | 414 kts | 213° |
| 2026-04-30 13:41 | 33.10071 | -7.50137 | 35059 ft | 419 kts | 194° |
| 2026-04-30 13:42 | 33.04255 | -7.50555 | 35050 ft | 423 kts | 182° |
| 2026-04-30 13:42 | 32.95411 | -7.50497 | 35043 ft | 423 kts | 182° |
| 2026-04-30 13:43 | 32.89514 | -7.50470 | 35036 ft | 423 kts | 182° |
| 2026-04-30 13:43 | 32.83650 | -7.50442 | 35041 ft | 423 kts | 182° |
| 2026-04-30 13:44 | 32.77746 | -7.50407 | 35042 ft | 424 kts | 182° |
| 2026-04-30 13:44 | 32.71836 | -7.50371 | 35041 ft | 424 kts | 182° |
| 2026-04-30 13:45 | 32.63013 | -7.50316 | 35038 ft | 424 kts | 182° |
| 2026-04-30 13:46 | 32.57112 | -7.50253 | 35045 ft | 423 kts | 182° |
| 2026-04-30 13:46 | 32.51251 | -7.50209 | 34837 ft | 423 kts | 182° |
| 2026-04-30 13:46 | 32.48273 | -7.50191 | 34596 ft | 423 kts | 182° |
| 2026-04-30 13:47 | 32.45359 | -7.50174 | 34365 ft | 422 kts | 182° |
| 2026-04-30 13:47 | 32.42420 | -7.50157 | 34131 ft | 422 kts | 182° |
| 2026-04-30 13:47 | 32.39474 | -7.50138 | 33856 ft | 422 kts | 182° |
| 2026-04-30 13:47 | 32.36532 | -7.50120 | 33579 ft | 422 kts | 183° |
| 2026-04-30 13:48 | 32.33634 | -7.50102 | 33321 ft | 422 kts | 183° |
| 2026-04-30 13:48 | 32.30697 | -7.50083 | 33032 ft | 423 kts | 183° |
| 2026-04-30 13:48 | 32.27720 | -7.50067 | 32567 ft | 421 kts | 183° |
| 2026-04-30 13:48 | 32.24840 | -7.50048 | 32075 ft | 418 kts | 183° |
| 2026-04-30 13:49 | 32.21937 | -7.50029 | 31571 ft | 415 kts | 183° |
| 2026-04-30 13:49 | 32.19050 | -7.50010 | 31069 ft | 412 kts | 183° |
| 2026-04-30 13:49 | 32.16187 | -7.49990 | 30584 ft | 409 kts | 183° |
| 2026-04-30 13:49 | 32.13345 | -7.49969 | 30098 ft | 407 kts | 183° |
| 2026-04-30 13:50 | 32.10525 | -7.49946 | 29530 ft | 403 kts | 183° |
| 2026-04-30 13:50 | 32.04956 | -7.49907 | 28439 ft | 396 kts | 184° |
| 2026-04-30 13:50 | 32.02236 | -7.49901 | 27913 ft | 393 kts | 184° |
| 2026-04-30 13:51 | 31.99512 | -7.49899 | 27383 ft | 391 kts | 184° |
| 2026-04-30 13:51 | 31.96792 | -7.49896 | 26879 ft | 388 kts | 184° |
| 2026-04-30 13:51 | 31.94090 | -7.49984 | 26368 ft | 384 kts | 191° |
| 2026-04-30 13:51 | 31.91518 | -7.50700 | 25879 ft | 377 kts | 204° |
| 2026-04-30 13:52 | 31.89228 | -7.52060 | 25402 ft | 371 kts | 216° |
| 2026-04-30 13:52 | 31.87264 | -7.53999 | 24931 ft | 367 kts | 229° |
| 2026-04-30 13:52 | 31.85734 | -7.56385 | 24458 ft | 364 kts | 241° |
| 2026-04-30 13:52 | 31.84542 | -7.59008 | 23999 ft | 362 kts | 243° |
| 2026-04-30 13:53 | 31.83365 | -7.61628 | 23535 ft | 361 kts | 243° |
| 2026-04-30 13:53 | 31.82200 | -7.64234 | 22987 ft | 358 kts | 246° |
| 2026-04-30 13:53 | 31.81359 | -7.66938 | 22461 ft | 355 kts | 257° |
| 2026-04-30 13:53 | 31.80995 | -7.69793 | 21941 ft | 352 kts | 267° |
| 2026-04-30 13:54 | 31.81060 | -7.72665 | 21434 ft | 350 kts | 272° |
| 2026-04-30 13:54 | 31.81186 | -7.75520 | 20931 ft | 349 kts | 272° |
| 2026-04-30 13:54 | 31.81305 | -7.78358 | 20437 ft | 347 kts | 272° |
| 2026-04-30 13:54 | 31.81418 | -7.81185 | 19951 ft | 345 kts | 272° |
| 2026-04-30 13:55 | 31.81528 | -7.83996 | 19483 ft | 343 kts | 272° |
| 2026-04-30 13:55 | 31.81636 | -7.86800 | 19058 ft | 341 kts | 272° |
| 2026-04-30 13:55 | 31.81743 | -7.89569 | 18640 ft | 338 kts | 272° |
| 2026-04-30 13:55 | 31.81849 | -7.92286 | 18215 ft | 336 kts | 272° |
| 2026-04-30 13:56 | 31.81955 | -7.95029 | 17736 ft | 334 kts | 272° |
| 2026-04-30 13:56 | 31.82060 | -7.97752 | 17266 ft | 332 kts | 272° |
| 2026-04-30 13:56 | 31.82164 | -8.00459 | 16803 ft | 330 kts | 272° |
| 2026-04-30 13:56 | 31.82266 | -8.03156 | 16351 ft | 329 kts | 272° |
| 2026-04-30 13:57 | 31.82366 | -8.05811 | 15911 ft | 328 kts | 272° |
| 2026-04-30 13:57 | 31.82468 | -8.08483 | 15462 ft | 327 kts | 272° |
| 2026-04-30 13:57 | 31.82567 | -8.11152 | 15067 ft | 325 kts | 272° |
| 2026-04-30 13:57 | 31.82665 | -8.13805 | 14700 ft | 325 kts | 272° |
| 2026-04-30 13:58 | 31.82765 | -8.16454 | 14353 ft | 324 kts | 272° |
| 2026-04-30 13:58 | 31.82961 | -8.21734 | 13630 ft | 323 kts | 271° |
| 2026-04-30 13:58 | 31.83055 | -8.24373 | 13237 ft | 321 kts | 271° |
| 2026-04-30 13:59 | 31.83146 | -8.26994 | 12848 ft | 320 kts | 271° |
| 2026-04-30 13:59 | 31.83239 | -8.29607 | 12472 ft | 319 kts | 271° |
| 2026-04-30 13:59 | 31.83332 | -8.32207 | 12089 ft | 317 kts | 271° |
| 2026-04-30 13:59 | 31.83369 | -8.34768 | 11723 ft | 315 kts | 263° |
| 2026-04-30 14:00 | 31.82864 | -8.37241 | 11360 ft | 311 kts | 246° |
| 2026-04-30 14:00 | 31.80141 | -8.41049 | 10632 ft | 307 kts | 212° |
| 2026-04-30 14:00 | 31.78219 | -8.42143 | 10277 ft | 306 kts | 203° |
| 2026-04-30 14:01 | 31.76295 | -8.43125 | 9925 ft | 303 kts | 203° |
| 2026-04-30 14:01 | 31.74371 | -8.44113 | 9517 ft | 300 kts | 203° |
| 2026-04-30 14:01 | 31.72465 | -8.45096 | 9141 ft | 297 kts | 204° |
| 2026-04-30 14:01 | 31.70598 | -8.46059 | 8749 ft | 285 kts | 202° |
| 2026-04-30 14:02 | 31.68746 | -8.46596 | 8368 ft | 269 kts | 181° |
| 2026-04-30 14:02 | 31.66924 | -8.46249 | 8000 ft | 266 kts | 159° |
| 2026-04-30 14:02 | 31.65365 | -8.45097 | 7637 ft | 268 kts | 136° |
| 2026-04-30 14:02 | 31.64316 | -8.43317 | 7281 ft | 270 kts | 113° |
| 2026-04-30 14:03 | 31.63917 | -8.41176 | 6926 ft | 269 kts | 96° |
| 2026-04-30 14:03 | 31.63740 | -8.39004 | 6584 ft | 268 kts | 95° |
| 2026-04-30 14:03 | 31.63564 | -8.36835 | 6338 ft | 266 kts | 96° |
| 2026-04-30 14:03 | 31.63381 | -8.34685 | 6111 ft | 265 kts | 96° |
| 2026-04-30 14:04 | 31.63196 | -8.32537 | 5948 ft | 266 kts | 96° |
| 2026-04-30 14:04 | 31.63011 | -8.30383 | 5640 ft | 264 kts | 96° |
| 2026-04-30 14:04 | 31.62827 | -8.28238 | 5299 ft | 263 kts | 95° |
| 2026-04-30 14:04 | 31.62644 | -8.26110 | 4968 ft | 262 kts | 95° |
| 2026-04-30 14:05 | 31.62464 | -8.24013 | 4629 ft | 260 kts | 95° |
| 2026-04-30 14:05 | 31.62282 | -8.21908 | 4282 ft | 256 kts | 95° |
| 2026-04-30 14:05 | 31.62106 | -8.19882 | 3980 ft | 245 kts | 95° |
| 2026-04-30 14:05 | 31.61938 | -8.17941 | 3644 ft | 231 kts | 95° |
| 2026-04-30 14:06 | 31.61782 | -8.16154 | 3380 ft | 209 kts | 94° |
| 2026-04-30 14:06 | 31.61513 | -8.13067 | 2870 ft | 173 kts | 94° |
| 2026-04-30 14:07 | 31.61287 | -8.10466 | 2442 ft | 155 kts | 95° |
| 2026-04-30 14:07 | 31.61178 | -8.09216 | 2233 ft | 153 kts | 95° |
| 2026-04-30 14:07 | 31.61071 | -8.07984 | 2025 ft | 151 kts | 95° |
| 2026-04-30 14:08 | 31.60857 | -8.05574 | 1649 ft | 146 kts | 95° |
| 2026-04-30 14:08 | 31.60754 | -8.04405 | 1517 ft | 137 kts | 94° |
| 2026-04-30 14:08 | 31.60626 | -8.02904 | 1526 ft | 42 kts | 96° |
| 2026-04-30 14:09 | 31.60613 | -8.02757 | 1531 ft | 0 kts | 96° |
| 2026-04-30 14:09 | 31.60607 | -8.02687 | 1537 ft | 23 kts | 96° |
| 2026-04-30 14:09 | 31.60520 | -8.02636 | 1536 ft | 6 kts | 186° |
| 2026-04-30 14:10 | 31.60477 | -8.02643 | 1532 ft | 6 kts | 189° |
| 2026-04-30 14:10 | 31.60440 | -8.02642 | 1536 ft | 4 kts | 155° |
| 2026-04-30 14:10 | 31.60427 | -8.02616 | 1533 ft | 6 kts | 104° |
| 2026-04-30 14:10 | 31.60418 | -8.02507 | 1538 ft | 17 kts | 95° |
| 2026-04-30 14:11 | 31.60406 | -8.02373 | 1539 ft | 16 kts | 96° |
| 2026-04-30 14:11 | 31.60380 | -8.02296 | 1537 ft | 9 kts | 154° |
| 2026-04-30 14:11 | 31.60334 | -8.02292 | 1540 ft | 5 kts | 184° |
| 2026-04-30 14:11 | 31.60322 | -8.02293 | 1540 ft | 0 kts | 184° |